Time;durP1;ratioP1;P1;durP2;ratioP2;P2;SDS_P1;SDS_P2;PMS_P1;PMS_P2;Temp;Humidity;BMP_temperature;BMP_pressure;BME280_temperature;BME280_humidity;BME280_pressure;Samples;Min_cycle;Max_cycle;Signal;HPM_P1;HPM_P2
2023/07/27 10:14:24;;;;;;;4.65;2.03;;;;;;;16.57;74.75;96159.69;2084123;28;20569;-62
2023/07/27 10:15:28;;;;;;;10.57;2.25;;;;;;;16.72;74.39;96153.28;2080162;28;20288;-62
2023/07/27 10:16:29;;;;;;;7.18;2.40;;;;;;;16.88;74.16;96154.72;2081057;28;20198;-62
2023/07/27 10:17:50;;;;;;;10.55;2.03;;;;;;;17.02;73.26;96153.66;2080155;28;20225;-61
2023/07/27 10:18:52;;;;;;;8.00;2.03;;;;;;;17.08;73.58;96158.47;2078246;28;20225;-62
2023/07/27 10:19:54;;;;;;;5.63;1.65;;;;;;;17.04;72.77;96163.13;2078836;28;20286;-62
2023/07/27 10:21:26;;;;;;;4.82;1.90;;;;;;;17.11;72.52;96152.94;2078261;28;20193;-62
2023/07/27 10:22:27;;;;;;;5.25;1.90;;;;;;;17.15;72.34;96151.72;2078048;28;20831;-61
2023/07/27 10:23:29;;;;;;;4.70;1.80;;;;;;;17.09;72.22;96149.56;2075899;28;20316;-61
2023/07/27 10:24:48;;;;;;;9.77;2.22;;;;;;;17.26;72.08;96149.06;2070905;28;20195;-62
2023/07/27 10:25:54;;;;;;;6.65;2.33;;;;;;;17.31;71.91;96148.72;2070476;28;20201;-62
2023/07/27 10:26:55;;;;;;;5.95;1.90;;;;;;;17.55;71.93;96148.56;2069142;28;20283;-61
2023/07/27 10:27:57;;;;;;;8.77;2.65;;;;;;;17.50;71.38;96144.63;2070883;28;20716;-62
2023/07/27 10:29:32;;;;;;;9.88;2.50;;;;;;;17.72;71.35;96146.34;2068686;28;20250;-62
2023/07/27 10:30:33;;;;;;;5.57;1.90;;;;;;;17.69;70.87;96134.22;2070290;28;20199;-62
2023/07/27 10:31:35;;;;;;;6.07;2.30;;;;;;;17.78;70.82;96130.84;2070785;28;20205;-61
2023/07/27 10:32:37;;;;;;;7.25;2.05;;;;;;;17.74;70.80;96142.63;2070882;28;20676;-62
2023/07/27 10:33:38;;;;;;;4.15;2.10;;;;;;;17.61;70.18;96128.72;2070328;28;20263;-62
2023/07/27 10:34:40;;;;;;;9.27;2.03;;;;;;;17.71;71.02;96142.88;2070791;28;20210;-62
2023/07/27 10:36:05;;;;;;;4.20;2.08;;;;;;;17.77;70.64;96131.78;2071009;28;20280;-62
2023/07/27 10:37:12;;;;;;;2.90;1.73;;;;;;;17.69;70.51;96134.22;2070103;28;20234;-61
2023/07/27 10:38:14;;;;;;;4.05;1.98;;;;;;;17.68;69.98;96127.28;2070079;28;20194;-61
2023/07/27 10:39:16;;;;;;;4.50;1.83;;;;;;;17.70;70.57;96132.41;2070905;28;20200;-62
2023/07/27 10:40:25;;;;;;;4.30;2.00;;;;;;;17.75;70.15;96127.59;2072061;28;20201;-62
2023/07/27 10:41:28;;;;;;;4.75;1.92;;;;;;;17.70;70.03;96119.22;2070196;28;20723;-61
2023/07/27 10:42:33;;;;;;;6.97;2.00;;;;;;;17.70;70.29;96117.44;2070168;28;20218;-61
2023/07/27 10:43:35;;;;;;;5.72;1.70;;;;;;;17.78;70.17;96124.72;2069548;28;20225;-62
2023/07/27 10:44:54;;;;;;;5.13;1.90;;;;;;;17.77;69.79;96107.19;2072474;28;20191;-61
2023/07/27 10:45:56;;;;;;;4.18;1.80;;;;;;;17.77;70.05;96115.94;2070990;28;20199;-61
2023/07/27 10:46:58;;;;;;;6.90;2.22;;;;;;;17.88;69.46;96108.97;2070751;28;20606;-62
2023/07/27 10:48:00;;;;;;;4.85;1.85;;;;;;;17.88;68.66;96117.72;2070082;28;20202;-61
2023/07/27 10:49:09;;;;;;;5.65;2.03;;;;;;;17.85;68.99;96110.06;2070158;28;20926;-61
2023/07/27 10:50:11;;;;;;;4.80;1.77;;;;;;;17.83;68.49;96105.88;2071059;28;20206;-61
2023/07/27 10:51:12;;;;;;;13.98;2.47;;;;;;;18.01;69.46;96111.47;2070661;28;20237;-61
2023/07/27 10:52:19;;;;;;;5.20;2.17;;;;;;;18.04;68.71;96105.91;2069715;28;20203;-62
2023/07/27 10:53:21;;;;;;;6.35;1.88;;;;;;;18.15;68.37;96112.94;2070515;28;20392;-61
2023/07/27 10:54:22;;;;;;;6.93;2.22;;;;;;;18.26;68.29;96104.97;2069855;28;20207;-61
2023/07/27 10:55:24;;;;;;;6.50;2.20;;;;;;;18.47;68.17;96107.56;2069094;28;20196;-64
2023/07/27 10:56:27;;;;;;;5.97;1.75;;;;;;;18.48;67.28;96105.78;2069807;28;20195;-64
2023/07/27 10:57:34;;;;;;;3.33;1.70;;;;;;;18.42;67.28;96107.13;2070659;28;20246;-64
2023/07/27 10:58:36;;;;;;;4.55;1.90;;;;;;;18.50;67.52;96101.19;2068923;28;20235;-63
2023/07/27 10:59:39;;;;;;;7.03;1.90;;;;;;;18.43;67.53;96107.00;2069010;28;20729;-63
2023/07/27 11:00:42;;;;;;;7.20;1.90;;;;;;;18.47;67.12;96112.84;2070732;28;20200;-64
2023/07/27 11:01:47;;;;;;;6.70;2.20;;;;;;;18.44;67.60;96100.75;2070200;28;20768;-63
2023/07/27 11:02:49;;;;;;;3.45;1.63;;;;;;;18.42;67.50;96104.47;2069757;28;20205;-63
2023/07/27 11:03:54;;;;;;;7.35;2.03;;;;;;;18.37;67.36;96107.53;2070385;28;20256;-63
2023/07/27 11:05:04;;;;;;;7.15;1.73;;;;;;;18.30;67.08;96111.66;2070707;28;20202;-63
2023/07/27 11:06:07;;;;;;;7.30;1.98;;;;;;;18.33;67.84;96100.81;2070275;28;20194;-64
2023/07/27 11:07:10;;;;;;;4.28;1.63;;;;;;;18.41;67.85;96103.66;2069583;28;20244;-64
2023/07/27 11:08:12;;;;;;;5.65;2.40;;;;;;;18.53;67.89;96100.94;2069240;28;20285;-64
2023/07/27 11:09:15;;;;;;;3.92;1.70;;;;;;;18.55;67.61;96114.84;2070657;28;20235;-63
2023/07/27 11:10:29;;;;;;;6.65;1.90;;;;;;;18.40;67.78;96104.63;2072652;28;20190;-64
2023/07/27 11:13:40;;;;;;;4.03;1.60;;;;;;;18.36;67.53;96103.22;2093893;27;21166;-62
2023/07/27 11:14:42;;;;;;;4.68;1.55;;;;;;;18.35;67.93;96100.72;2091363;28;20245;-61
2023/07/27 11:15:43;;;;;;;5.78;2.10;;;;;;;18.36;68.08;96103.22;2090632;28;20208;-61
2023/07/27 11:16:45;;;;;;;5.65;2.13;;;;;;;18.40;68.62;96098.50;2090888;28;20193;-62
2023/07/27 11:17:48;;;;;;;3.80;1.80;;;;;;;18.36;67.69;96100.56;2091745;28;20204;-61
2023/07/27 11:18:50;;;;;;;3.58;1.63;;;;;;;18.42;68.33;96093.91;2084596;28;20309;-62
2023/07/27 11:19:52;;;;;;;5.25;1.90;;;;;;;18.54;68.53;96099.97;2083984;28;20201;-62
2023/07/27 11:22:18;;;;;;;4.90;1.60;;;;;;;18.50;68.67;96088.81;2099778;27;21064;-62
2023/07/27 11:23:21;;;;;;;3.50;1.60;;;;;;;18.58;68.79;96093.44;2096608;28;20200;-62
2023/07/27 11:25:34;;;;;;;4.40;1.60;;;;;;;18.55;68.71;96096.34;2085107;28;20557;-62
2023/07/27 11:28:00;;;;;;;6.20;1.55;;;;;;;18.48;68.34;96082.81;2093590;27;20560;-62
2023/07/27 11:30:21;;;;;;;4.13;1.70;;;;;;;18.42;68.75;96078.03;2100677;27;20567;-62
2023/07/27 11:33:01;;;;;;;3.10;1.42;;;;;;;18.35;69.21;96079.56;2084579;28;20552;-63
2023/07/27 12:40:01;;;;;;;4.97;2.10;;;;;;;17.50;84.91;96076.00;2074509;27;20566;-65
2023/07/27 12:42:19;;;;;;;4.05;1.60;;;;;;;17.50;85.04;96065.44;2084883;28;20889;-65
2023/07/27 12:44:43;;;;;;;3.25;1.65;;;;;;;17.47;86.84;96061.22;2100712;27;20565;-65
2023/07/27 12:47:03;;;;;;;6.90;1.92;;;;;;;17.44;85.02;96054.41;2084428;28;20575;-66
2023/07/27 12:49:27;;;;;;;4.32;1.77;;;;;;;17.45;86.27;96055.25;2084424;28;20536;-67
2023/07/27 12:52:00;;;;;;;4.20;2.10;;;;;;;17.50;86.61;96060.16;2103843;27;20549;-65
2023/07/27 12:53:01;;;;;;;2.55;1.70;;;;;;;17.54;86.33;96062.41;2097151;28;20248;-67
2023/07/27 12:55:27;;;;;;;3.83;1.50;;;;;;;17.57;86.50;96064.81;2084939;28;20584;-64
2023/07/27 12:56:28;;;;;;;3.67;1.88;;;;;;;17.55;85.09;96056.16;2082883;28;20190;-65
2023/07/27 12:59:03;;;;;;;4.88;1.50;;;;;;;17.63;85.47;96056.34;2103308;27;20647;-65
2023/07/27 13:00:08;;;;;;;8.18;2.00;;;;;;;17.74;86.68;96057.31;2099655;28;20731;-65
2023/07/27 13:01:09;;;;;;;11.48;1.70;;;;;;;17.82;86.28;96062.75;2096024;28;20196;-65
2023/07/27 13:02:10;;;;;;;4.78;1.80;;;;;;;17.86;86.62;96058.06;2093871;28;20197;-65
2023/07/27 13:04:54;;;;;;;4.72;2.03;;;;;;;17.77;84.76;96052.56;2100937;27;20541;-65
2023/07/27 13:05:56;;;;;;;5.22;1.88;;;;;;;17.86;85.18;96053.63;2099001;28;20200;-65
2023/07/27 13:06:57;;;;;;;3.30;2.08;;;;;;;17.95;85.92;96055.53;2095499;28;20253;-65
2023/07/27 13:08:00;;;;;;;6.20;2.38;;;;;;;17.94;85.12;96051.22;2096138;28;20638;-65
2023/07/27 13:09:02;;;;;;;4.97;2.20;;;;;;;17.95;84.86;96055.53;2079906;28;20283;-65
2023/07/27 13:10:04;;;;;;;3.67;2.20;;;;;;;18.09;86.14;96048.25;2080664;28;20599;-65
2023/07/27 13:12:26;;;;;;;5.80;2.35;;;;;;;17.95;83.71;96044.13;2075748;27;21031;-64
2023/07/27 13:13:27;;;;;;;3.05;1.88;;;;;;;17.90;83.54;96047.13;2058628;28;20220;-64
2023/07/27 13:16:15;;;;;;;2.28;1.40;;;;;;;17.94;84.40;96045.94;2091207;28;20531;-64
2023/07/27 13:18:53;;;;;;;6.90;2.10;;;;;;;17.93;84.97;96043.41;2078876;28;20580;-64
2023/07/27 13:21:28;;;;;;;3.67;2.15;;;;;;;17.83;84.92;96043.31;2090491;28;20550;-64
2023/07/27 13:23:59;;;;;;;9.95;2.10;;;;;;;17.88;84.30;96043.78;2083218;27;20673;-64
2023/07/27 13:26:25;;;;;;;4.50;2.10;;;;;;;17.92;83.36;96037.25;2091627;28;20889;-64
2023/07/27 13:28:56;;;;;;;2.88;1.63;;;;;;;17.97;84.20;96036.06;2100551;27;20563;-64
2023/07/27 13:31:36;;;;;;;8.95;1.85;;;;;;;18.07;84.35;96037.81;2091337;28;20579;-64
2023/07/27 13:32:38;;;;;;;3.78;2.13;;;;;;;18.14;84.39;96026.72;2091251;28;20696;-65
2023/07/27 13:35:03;;;;;;;2.67;1.77;;;;;;;18.19;83.72;96020.06;2093246;28;20553;-63
2023/07/27 13:36:06;;;;;;;4.95;1.80;;;;;;;18.20;82.21;96024.38;2090960;28;20196;-64
2023/07/27 13:37:07;;;;;;;3.60;2.03;;;;;;;18.19;81.49;96021.88;2090805;28;20311;-64
2023/07/27 13:38:09;;;;;;;3.25;1.95;;;;;;;18.22;81.61;96024.25;2088924;28;20208;-63
2023/07/27 13:40:36;;;;;;;9.20;6.13;;;;;;;18.28;82.13;96034.31;2133394;27;20810;-63
2023/07/27 13:41:38;;;;;;;17.08;8.85;;;;;;;18.28;81.68;96027.22;2132044;27;20611;-63
2023/07/27 13:42:39;;;;;;;2.95;2.08;;;;;;;18.36;82.16;96029.22;2129392;27;20192;-63
2023/07/27 13:43:41;;;;;;;7.75;5.35;;;;;;;18.40;81.27;96030.59;2127935;27;20220;-63
2023/07/27 13:44:42;;;;;;;6.38;2.30;;;;;;;18.51;81.05;96026.19;2122768;27;20198;-63
2023/07/27 13:47:10;;;;;;;3.75;1.70;;;;;;;18.44;80.09;96005.59;2093227;27;21067;-63
2023/07/27 13:48:12;;;;;;;3.58;1.73;;;;;;;18.56;79.63;96026.63;2089999;28;20921;-65
2023/07/27 13:49:17;;;;;;;3.58;2.08;;;;;;;18.60;79.96;96028.91;2070518;28;20201;-65
2023/07/27 13:50:19;;;;;;;4.30;1.75;;;;;;;18.60;80.24;96023.59;2070811;28;20190;-65
2023/07/27 13:53:09;;;;;;;6.60;1.90;;;;;;;18.59;79.37;96024.56;2097223;27;21104;-66
2023/07/27 13:54:11;;;;;;;4.65;1.63;;;;;;;18.64;79.47;96042.69;2087337;28;20207;-65
2023/07/27 13:56:54;;;;;;;2.75;1.60;;;;;;;18.67;80.21;96020.44;2084421;28;20584;-65
2023/07/27 13:57:56;;;;;;;2.95;1.40;;;;;;;18.76;80.04;96025.72;2081428;28;20332;-65
2023/07/27 14:00:38;;;;;;;2.95;1.55;;;;;;;18.64;78.94;96029.47;2084746;28;20561;-65
2023/07/27 14:03:17;;;;;;;6.57;1.92;;;;;;;18.60;78.38;96038.63;2083905;28;20552;-67
2023/07/27 14:06:05;;;;;;;4.85;1.65;;;;;;;18.55;77.81;96027.59;2087571;28;20576;-65
2023/07/27 14:08:49;;;;;;;3.45;1.75;;;;;;;18.62;78.08;96028.75;2086304;28;20571;-65
2023/07/27 14:11:21;;;;;;;2.72;1.50;;;;;;;18.66;77.74;96024.88;2095053;27;20574;-65
2023/07/27 14:14:11;;;;;;;4.40;1.85;;;;;;;18.69;77.80;96015.81;2091547;28;20543;-65
2023/07/27 14:15:13;;;;;;;2.90;1.85;;;;;;;18.83;77.66;96033.13;2090789;28;20880;-65
2023/07/27 14:16:14;;;;;;;3.20;1.85;;;;;;;18.86;77.09;96022.28;2089678;28;20275;-64
2023/07/27 14:18:46;;;;;;;5.43;1.70;;;;;;;18.85;77.06;96031.19;2094257;27;20558;-65
2023/07/27 14:19:47;;;;;;;9.57;1.58;;;;;;;18.89;77.05;96033.44;2090537;28;20550;-65
2023/07/27 14:22:35;;;;;;;3.10;1.45;;;;;;;18.90;76.18;96027.19;2086111;28;20913;-65
2023/07/27 14:23:37;;;;;;;4.10;2.03;;;;;;;18.95;76.14;96024.16;2075359;28;20232;-65
2023/07/27 14:26:10;;;;;;;3.72;1.80;;;;;;;18.98;76.03;96023.03;2101322;27;20919;-66
2023/07/27 14:29:03;;;;;;;11.00;5.68;;;;;;;19.04;75.48;96022.50;2082688;27;20575;-62
2023/07/27 14:31:37;;;;;;;4.13;1.73;;;;;;;19.12;75.49;96014.69;2085202;28;20586;-64
2023/07/27 14:34:18;;;;;;;3.95;1.75;;;;;;;19.16;75.73;96007.34;2085450;28;21236;-66
2023/07/27 14:35:20;;;;;;;4.70;1.70;;;;;;;19.29;74.65;96015.00;2079604;28;20193;-67
2023/07/27 14:38:00;;;;;;;8.07;2.05;;;;;;;19.27;75.08;95999.25;2100176;27;20577;-64
2023/07/27 14:39:02;;;;;;;3.25;1.70;;;;;;;19.33;75.30;96013.78;2081009;28;20319;-64
2023/07/27 14:41:38;;;;;;;3.72;1.80;;;;;;;19.32;74.82;96015.56;2083333;28;20566;-64
2023/07/27 14:42:40;;;;;;;2.60;1.48;;;;;;;19.34;75.08;96010.16;2081810;28;20292;-64
2023/07/27 14:45:12;;;;;;;3.45;1.60;;;;;;;19.33;74.51;96014.59;2083468;28;20578;-64
2023/07/27 14:46:14;;;;;;;3.60;1.40;;;;;;;19.33;74.31;96008.47;2083099;28;20223;-64
2023/07/27 14:47:16;;;;;;;6.72;2.15;;;;;;;19.40;74.38;96010.44;2082057;28;20196;-64
2023/07/27 14:48:17;;;;;;;5.70;1.60;;;;;;;19.43;73.06;96009.31;2078649;28;20197;-64
2023/07/27 14:49:19;;;;;;;4.60;1.50;;;;;;;19.51;74.08;96013.91;2071754;28;20285;-64
2023/07/27 14:50:27;;;;;;;3.92;1.88;;;;;;;19.55;73.28;96012.66;2071094;28;20217;-64
2023/07/27 14:51:31;;;;;;;3.95;1.80;;;;;;;19.57;73.32;96008.06;2071437;28;20207;-65
2023/07/27 14:52:34;;;;;;;3.83;1.20;;;;;;;19.68;73.37;96002.63;2070938;28;20209;-65
2023/07/27 14:53:35;;;;;;;3.15;1.63;;;;;;;19.72;72.61;96004.00;2072042;28;20747;-65
2023/07/27 14:54:37;;;;;;;3.83;1.90;;;;;;;19.74;73.46;96002.06;2072956;28;20806;-64
2023/07/27 14:55:38;;;;;;;3.85;1.63;;;;;;;19.81;73.58;95993.56;2071757;28;20293;-64
2023/07/27 14:56:40;;;;;;;6.55;1.52;;;;;;;19.79;73.02;95993.66;2072466;28;20292;-65
2023/07/27 14:57:41;;;;;;;3.70;1.60;;;;;;;19.94;73.35;95996.75;2071933;28;20852;-64
2023/07/27 14:58:42;;;;;;;2.85;1.55;;;;;;;19.96;72.83;95999.25;2074162;28;20230;-64
2023/07/27 14:59:48;;;;;;;4.93;1.90;;;;;;;20.02;71.93;95999.53;2074965;28;20206;-64
2023/07/27 15:00:53;;;;;;;4.75;1.95;;;;;;;20.16;72.08;95997.41;2073222;28;20202;-65
2023/07/27 15:01:54;;;;;;;3.90;2.15;;;;;;;20.27;71.85;96001.69;2071134;28;20208;-65
2023/07/27 15:02:56;;;;;;;3.17;1.65;;;;;;;20.43;72.10;96003.72;2073395;28;20197;-65
2023/07/27 15:04:06;;;;;;;3.53;1.70;;;;;;;20.58;71.58;95999.59;2070609;28;20208;-65
2023/07/27 15:05:10;;;;;;;5.45;1.70;;;;;;;20.72;71.26;95995.66;2069148;28;20315;-65
2023/07/27 15:06:12;;;;;;;5.45;1.67;;;;;;;20.90;70.83;96002.84;2065421;28;20282;-65
2023/07/27 15:07:14;;;;;;;3.47;1.70;;;;;;;20.96;69.89;95995.13;2066015;28;20822;-65
2023/07/27 15:08:15;;;;;;;7.05;1.60;;;;;;;21.07;70.38;95998.56;2069014;28;20247;-65
2023/07/27 15:09:17;;;;;;;5.35;1.85;;;;;;;21.27;69.58;95996.56;2071872;28;20186;-65
2023/07/27 15:10:18;;;;;;;4.40;1.30;;;;;;;21.24;68.69;95997.72;2072513;28;20310;-65
2023/07/27 15:11:33;;;;;;;4.43;2.33;;;;;;;21.04;68.89;95989.09;2074560;28;20197;-64
2023/07/27 15:12:37;;;;;;;3.45;1.55;;;;;;;21.27;69.55;95997.44;2073320;28;20201;-65
2023/07/27 15:13:39;;;;;;;3.80;1.95;;;;;;;21.11;69.35;95990.13;2070833;28;20275;-65
2023/07/27 15:14:40;;;;;;;3.75;1.77;;;;;;;21.12;69.54;95991.81;2070090;28;20297;-65
2023/07/27 15:15:42;;;;;;;4.28;1.75;;;;;;;21.25;68.96;95994.09;2068383;28;20205;-66
2023/07/27 15:16:44;;;;;;;4.93;1.92;;;;;;;21.23;69.43;95996.06;2069326;28;20539;-65
2023/07/27 15:17:46;;;;;;;3.67;2.03;;;;;;;21.19;67.80;95990.22;2072535;28;20209;-65
2023/07/27 15:18:47;;;;;;;3.88;2.22;;;;;;;21.33;68.39;95993.31;2074986;28;20236;-65
2023/07/27 15:19:49;;;;;;;5.40;2.30;;;;;;;21.41;68.55;95987.25;2073853;28;20256;-66
2023/07/27 15:20:58;;;;;;;3.78;1.85;;;;;;;21.75;67.87;95989.25;2069163;28;20296;-65
2023/07/27 15:21:59;;;;;;;5.28;1.80;;;;;;;21.77;65.15;95989.94;2074957;28;20537;-65
2023/07/27 15:23:03;;;;;;;6.93;1.98;;;;;;;21.74;66.39;95988.41;2073823;28;20209;-66
2023/07/27 15:24:05;;;;;;;3.38;1.63;;;;;;;21.85;66.81;95993.47;2069084;28;20245;-66
2023/07/27 15:25:07;;;;;;;6.05;2.53;;;;;;;21.80;65.18;95994.91;2070788;28;20232;-65
2023/07/27 15:26:08;;;;;;;3.85;2.15;;;;;;;21.56;65.20;95993.75;2068359;28;20202;-66
2023/07/27 15:27:10;;;;;;;3.58;1.90;;;;;;;21.49;65.55;95996.13;2066374;28;20194;-65
2023/07/27 15:28:11;;;;;;;7.97;2.15;;;;;;;21.47;66.44;95989.31;2067025;28;20279;-65
2023/07/27 15:29:13;;;;;;;4.00;2.05;;;;;;;21.36;66.38;95980.59;2069809;28;20291;-65
2023/07/27 15:30:14;;;;;;;6.03;2.03;;;;;;;21.37;66.41;95986.75;2070884;28;20187;-68
2023/07/27 15:31:16;;;;;;;4.43;2.50;;;;;;;21.33;66.26;95988.00;2073143;28;20229;-68
2023/07/27 15:32:17;;;;;;;4.30;2.38;;;;;;;21.35;66.19;95986.88;2074387;28;20201;-68
2023/07/27 15:33:19;;;;;;;5.68;2.42;;;;;;;21.33;65.96;95980.06;2073449;28;20759;-68
2023/07/27 15:34:20;;;;;;;4.05;1.75;;;;;;;21.23;66.83;95977.50;2075984;28;20700;-68
2023/07/27 15:35:22;;;;;;;3.00;2.00;;;;;;;21.17;66.61;95978.09;2070932;28;20617;-68
2023/07/27 15:36:23;;;;;;;4.30;1.85;;;;;;;21.16;66.74;95977.25;2076097;28;20200;-68
2023/07/27 15:37:25;;;;;;;6.43;2.70;;;;;;;21.08;66.39;95984.28;2073863;28;20194;-68
2023/07/27 15:38:26;;;;;;;7.75;2.22;;;;;;;21.09;67.49;95978.84;2071018;28;20222;-68
2023/07/27 15:39:28;;;;;;;2.78;1.60;;;;;;;21.06;67.01;95978.31;2070019;28;20202;-68
2023/07/27 15:40:29;;;;;;;4.93;2.05;;;;;;;21.15;66.68;95977.41;2069274;28;20198;-68
2023/07/27 15:41:31;;;;;;;5.47;2.53;;;;;;;21.08;67.23;95979.81;2072263;28;20286;-68
2023/07/27 15:42:32;;;;;;;5.00;2.20;;;;;;;21.10;67.71;95977.00;2073453;28;20395;-68
2023/07/27 15:43:33;;;;;;;4.05;2.22;;;;;;;21.02;67.15;95970.63;2072886;28;20673;-68
2023/07/27 15:44:36;;;;;;;5.80;2.10;;;;;;;21.05;67.89;95969.50;2069926;28;21031;-68
2023/07/27 15:45:37;;;;;;;4.10;2.13;;;;;;;21.04;67.15;95975.81;2069994;28;20267;-68
2023/07/27 15:46:39;;;;;;;5.38;2.50;;;;;;;20.93;67.10;95968.88;2071660;28;20888;-68
2023/07/27 15:47:40;;;;;;;2.75;1.85;;;;;;;20.85;67.17;95972.28;2074475;28;20208;-68
2023/07/27 15:48:42;;;;;;;4.15;2.40;;;;;;;20.82;67.02;95975.25;2072654;28;20241;-68
2023/07/27 15:49:43;;;;;;;3.20;1.80;;;;;;;20.89;66.68;95978.13;2073493;28;21243;-68
2023/07/27 15:50:45;;;;;;;4.03;2.13;;;;;;;20.86;67.26;95981.91;2071208;28;20198;-68
2023/07/27 15:51:47;;;;;;;3.70;1.90;;;;;;;20.88;66.77;95973.81;2072278;28;20198;-68
2023/07/27 15:52:48;;;;;;;3.50;2.15;;;;;;;20.88;67.31;95977.28;2068497;28;20201;-68
2023/07/27 15:53:50;;;;;;;5.72;2.53;;;;;;;20.82;67.19;95977.03;2070018;28;20233;-68
2023/07/27 15:54:51;;;;;;;3.83;2.30;;;;;;;20.83;67.73;95976.06;2072366;28;20318;-68
